createdAt,value
2023-03-06T00:01:48.901Z,2.69
2023-03-06T00:04:51.532Z,2.70
2023-03-06T00:07:54.061Z,2.69
2023-03-06T00:10:57.352Z,2.83
2023-03-06T00:13:59.774Z,2.83
2023-03-06T00:17:02.220Z,2.72
2023-03-06T00:20:07.114Z,2.81
2023-03-06T00:23:10.263Z,2.71
2023-03-06T00:26:12.837Z,2.72
2023-03-06T00:29:17.624Z,2.58
2023-03-06T00:32:20.820Z,2.59
2023-03-06T00:35:23.438Z,2.67
2023-03-06T00:38:28.543Z,2.66
2023-03-06T00:41:32.015Z,2.63
2023-03-06T00:44:34.450Z,2.66
2023-03-06T00:47:37.867Z,2.75
2023-03-06T00:50:40.543Z,2.90
2023-03-06T00:53:43.048Z,2.89
2023-03-06T00:56:45.529Z,2.86
2023-03-06T00:59:48.239Z,2.85
2023-03-06T01:02:50.787Z,2.77
2023-03-06T01:05:53.475Z,2.82
2023-03-06T01:09:06.353Z,2.92
2023-03-06T01:12:09.315Z,2.83
2023-03-06T01:15:13.797Z,2.85
2023-03-06T01:18:16.260Z,2.72
2023-03-06T01:21:18.832Z,2.80
2023-03-06T01:24:21.306Z,2.91
2023-03-06T01:27:23.783Z,2.97
2023-03-06T01:30:27.460Z,2.85
2023-03-06T01:33:30.248Z,2.86
2023-03-06T01:36:32.910Z,2.94
2023-03-06T01:39:35.481Z,2.96
2023-03-06T01:42:38.172Z,2.82
2023-03-06T01:45:41.291Z,2.79
2023-03-06T01:48:45.012Z,2.68
2023-03-06T01:51:55.105Z,2.64
2023-03-06T01:55:02.866Z,2.69
2023-03-06T01:58:12.310Z,2.65
2023-03-06T02:01:16.049Z,2.64
2023-03-06T02:04:18.835Z,2.78
2023-03-06T02:07:21.659Z,2.76
2023-03-06T02:10:25.111Z,2.79
2023-03-06T02:13:29.347Z,2.83
2023-03-06T02:16:33.106Z,2.79
2023-03-06T02:19:50.296Z,2.88
2023-03-06T02:23:04.213Z,2.96
2023-03-06T02:26:09.404Z,2.84
2023-03-06T02:29:11.903Z,2.81
2023-03-06T02:32:14.485Z,2.84
2023-03-06T02:35:23.560Z,2.84
2023-03-06T02:38:37.753Z,2.89
2023-03-06T02:41:41.173Z,2.95
2023-03-06T02:44:44.272Z,2.94
2023-03-06T02:47:47.560Z,2.91
2023-03-06T02:50:50.227Z,2.87
2023-03-06T02:53:53.567Z,2.98
2023-03-06T02:56:56.945Z,2.97
2023-03-06T02:59:59.560Z,3.03
2023-03-06T03:03:02.572Z,3.04
2023-03-06T03:06:07.823Z,3.04
2023-03-06T03:09:12.016Z,3.11
2023-03-06T03:12:14.562Z,3.06
2023-03-06T03:15:17.656Z,3.21
2023-03-06T03:18:20.130Z,3.19
2023-03-06T03:21:23.642Z,3.27
2023-03-06T03:24:26.833Z,3.29
2023-03-06T03:27:30.402Z,3.33
2023-03-06T03:30:32.951Z,3.34
2023-03-06T03:33:36.341Z,3.34
2023-03-06T03:36:39.668Z,3.43
2023-03-06T03:39:44.274Z,3.32
2023-03-06T03:42:47.379Z,3.34
2023-03-06T03:45:49.941Z,3.33
2023-03-06T03:48:52.920Z,3.22
2023-03-06T03:51:55.775Z,3.24
2023-03-06T03:55:00.607Z,3.30
2023-03-06T03:58:05.614Z,3.21
2023-03-06T04:01:08.572Z,3.23
2023-03-06T04:04:12.315Z,3.22
2023-03-06T04:07:15.793Z,3.17
2023-03-06T04:10:18.272Z,3.30
2023-03-06T04:13:22.097Z,3.29
2023-03-06T04:16:28.057Z,3.27
2023-03-06T04:19:31.490Z,3.38
2023-03-06T04:22:34.559Z,3.33
2023-03-06T04:25:37.061Z,3.32
2023-03-06T04:28:42.444Z,3.21
2023-03-06T04:31:45.174Z,3.21
2023-03-06T04:34:47.841Z,3.29
2023-03-06T04:37:50.358Z,3.25
2023-03-06T04:40:54.900Z,3.14
2023-03-06T04:43:57.537Z,3.13
2023-03-06T04:47:00.002Z,3.09
2023-03-06T04:50:02.784Z,3.19
2023-03-06T04:53:05.437Z,3.09
2023-03-06T04:56:08.165Z,3.10
2023-03-06T04:59:10.696Z,3.14
2023-03-06T05:02:14.309Z,3.11
2023-03-06T05:05:18.008Z,3.18
2023-03-06T05:08:20.513Z,3.26
2023-03-06T05:11:23.239Z,3.33
2023-03-06T05:14:25.675Z,3.31
2023-03-06T05:17:28.290Z,3.42
2023-03-06T05:20:30.827Z,3.33
2023-03-06T05:23:36.262Z,3.34
2023-03-06T05:26:38.734Z,3.29
2023-03-06T05:29:41.294Z,3.27
2023-03-06T05:32:44.331Z,3.22
2023-03-06T05:35:48.211Z,3.12
2023-03-06T05:38:50.665Z,3.10
2023-03-06T05:41:53.254Z,2.96
2023-03-06T05:44:55.691Z,2.91
2023-03-06T05:47:59.032Z,2.80
2023-03-06T05:51:02.615Z,2.71
2023-03-06T05:54:05.062Z,2.57
2023-03-06T05:57:07.647Z,2.52
2023-03-06T06:00:11.249Z,2.50
2023-03-06T06:03:16.503Z,2.64
2023-03-06T06:06:18.924Z,2.40
2023-03-06T06:09:22.493Z,2.50
2023-03-06T06:12:26.741Z,2.65
2023-03-06T06:15:29.283Z,2.73
2023-03-06T06:18:31.792Z,2.82
2023-03-06T06:21:34.269Z,2.80
2023-03-06T06:24:37.023Z,2.86
2023-03-06T06:27:39.561Z,2.99
2023-03-06T06:30:42.026Z,2.96
2023-03-06T06:33:45.404Z,2.93
2023-03-06T06:36:48.305Z,2.94
2023-03-06T06:39:50.843Z,2.96
2023-03-06T06:42:53.366Z,3.04
2023-03-06T06:46:19.565Z,3.14
2023-03-06T06:49:21.338Z,3.01
2023-03-06T06:52:25.133Z,3.07
2023-03-06T06:55:27.907Z,3.07
2023-03-06T06:58:30.712Z,3.22
2023-03-06T07:01:33.187Z,3.35
2023-03-06T07:04:36.499Z,3.37
2023-03-06T07:07:39.131Z,3.35
2023-03-06T07:10:41.645Z,3.45
2023-03-06T07:13:46.032Z,3.44
2023-03-06T07:16:48.554Z,3.55
2023-03-06T07:19:51.115Z,3.47
2023-03-06T07:22:53.676Z,3.41
2023-03-06T07:25:57.580Z,3.27
2023-03-06T07:29:00.329Z,3.33
2023-03-06T07:32:02.952Z,3.33
2023-03-06T07:35:19.424Z,3.37
2023-03-06T07:38:22.745Z,3.41
2023-03-06T07:41:25.533Z,3.27
2023-03-06T07:44:28.486Z,3.33
2023-03-06T07:47:31.190Z,3.32
2023-03-06T07:50:35.095Z,3.17
2023-03-06T07:53:37.828Z,3.24
2023-03-06T07:56:40.297Z,3.33
2023-03-06T07:59:43.015Z,3.27
2023-03-06T08:02:45.793Z,3.59
2023-03-06T08:05:48.500Z,3.54
2023-03-06T08:08:52.576Z,3.62
2023-03-06T08:11:55.432Z,3.74
2023-03-06T08:14:57.901Z,3.60
2023-03-06T08:18:00.422Z,3.55
2023-03-06T08:21:09.275Z,3.59
2023-03-06T08:24:13.262Z,3.57
2023-03-06T08:27:15.703Z,3.53
2023-03-06T08:30:19.620Z,3.79
2023-03-06T08:33:22.835Z,3.73
2023-03-06T08:36:25.911Z,3.58
2023-03-06T08:39:28.339Z,3.85
2023-03-06T08:42:31.947Z,3.79
2023-03-06T08:45:34.486Z,3.68
2023-03-06T08:48:37.349Z,3.60
2023-03-06T08:51:39.894Z,3.98
2023-03-06T08:54:42.307Z,3.97
2023-03-06T08:57:45.465Z,4.16
2023-03-06T09:00:48.179Z,4.20
2023-03-06T09:03:53.837Z,3.70
2023-03-06T09:06:56.460Z,3.92
2023-03-06T09:09:59.434Z,4.23
2023-03-06T09:13:02.157Z,4.49
2023-03-06T09:16:05.206Z,4.74
2023-03-06T09:19:08.018Z,4.95
2023-03-06T09:22:10.752Z,5.39
2023-03-06T09:25:14.863Z,5.81
2023-03-06T09:28:17.966Z,6.26
2023-03-06T09:31:20.809Z,6.12
2023-03-06T09:34:23.377Z,6.34
2023-03-06T09:37:26.103Z,6.43
2023-03-06T09:41:01.952Z,6.45
2023-03-06T09:44:08.789Z,6.18
2023-03-06T09:47:27.641Z,6.27
2023-03-06T09:50:43.783Z,6.73
2023-03-06T09:54:09.996Z,6.56
2023-03-06T09:57:21.973Z,6.47
2023-03-06T10:00:33.704Z,6.06
2023-03-06T10:03:53.975Z,6.65
2023-03-06T10:07:29.946Z,6.44
2023-03-06T10:10:45.884Z,6.43
2023-03-06T10:13:52.959Z,6.89
2023-03-06T10:16:56.177Z,6.76
2023-03-06T10:19:59.170Z,6.93
2023-03-06T10:23:24.944Z,7.03
2023-03-06T10:26:37.862Z,7.02
2023-03-06T10:30:01.262Z,6.49
2023-03-06T10:33:10.104Z,6.49
2023-03-06T10:36:15.829Z,6.42
2023-03-06T10:39:21.953Z,6.83
2023-03-06T10:42:28.837Z,6.87
2023-03-06T10:45:43.763Z,7.04
2023-03-06T10:48:58.580Z,7.35
2023-03-06T10:52:04.276Z,7.02
2023-03-06T10:55:29.595Z,7.19
2023-03-06T10:58:36.669Z,7.16
2023-03-06T11:01:47.349Z,7.14
2023-03-06T11:04:53.389Z,7.33
2023-03-06T11:08:00.500Z,7.06
2023-03-06T11:11:05.582Z,7.08
2023-03-06T11:14:16.871Z,6.85
2023-03-06T11:17:32.043Z,7.25
2023-03-06T11:20:55.547Z,7.53
2023-03-06T11:24:04.257Z,7.17
2023-03-06T11:27:38.200Z,7.45
2023-03-06T11:30:49.535Z,7.22
2023-03-06T11:33:52.230Z,7.37
2023-03-06T11:36:58.478Z,7.15
2023-03-06T11:40:06.815Z,7.69
2023-03-06T11:43:27.507Z,7.53
2023-03-06T11:46:40.000Z,7.19
2023-03-06T11:50:10.011Z,7.18
2023-03-06T11:53:18.604Z,6.88
2023-03-06T11:56:35.690Z,6.85
2023-03-06T12:00:22.415Z,6.69
2023-03-06T12:03:39.324Z,6.73
2023-03-06T12:06:47.395Z,6.81
2023-03-06T12:10:02.814Z,7.06
2023-03-06T12:13:20.730Z,7.20
2023-03-06T12:16:46.948Z,6.94
2023-03-06T12:20:07.280Z,6.64
2023-03-06T12:23:23.388Z,6.40
2023-03-06T12:26:47.896Z,6.36
2023-03-06T12:30:18.408Z,6.28
2023-03-06T12:33:24.511Z,6.18
2023-03-06T12:36:46.455Z,6.17
2023-03-06T12:40:18.947Z,5.97
2023-03-06T12:43:30.654Z,5.94
2023-03-06T12:46:39.723Z,5.84
2023-03-06T12:49:48.560Z,5.68
2023-03-06T12:52:53.497Z,5.78
2023-03-06T12:55:58.521Z,5.91
2023-03-06T12:59:02.571Z,6.05
2023-03-06T13:02:34.226Z,6.16
2023-03-06T13:06:30.951Z,6.23
2023-03-06T13:10:02.793Z,6.32
2023-03-06T13:13:30.674Z,6.40
2023-03-06T13:16:34.583Z,6.48
2023-03-06T13:19:37.656Z,6.43
2023-03-06T13:22:43.009Z,6.34
2023-03-06T13:25:50.274Z,6.46
2023-03-06T13:28:55.496Z,6.46
2023-03-06T13:32:01.183Z,6.45
2023-03-06T13:35:32.578Z,6.58
2023-03-06T13:38:41.327Z,6.81
2023-03-06T13:41:56.090Z,6.74
2023-03-06T13:45:06.418Z,6.63
2023-03-06T13:48:45.560Z,6.57
2023-03-06T13:52:10.688Z,6.68
2023-03-06T13:55:45.244Z,6.69
2023-03-06T13:58:53.564Z,6.56
2023-03-06T14:02:37.098Z,6.30
2023-03-06T14:05:45.805Z,6.30
2023-03-06T14:08:48.577Z,6.18
2023-03-06T14:11:57.742Z,6.15
2023-03-06T14:15:12.243Z,6.11
2023-03-06T14:18:23.978Z,6.24
2023-03-06T14:21:40.166Z,6.30
2023-03-06T14:24:52.414Z,6.46
2023-03-06T14:27:56.456Z,6.45
2023-03-06T14:31:05.193Z,6.32
2023-03-06T14:34:15.499Z,6.27
2023-03-06T14:37:25.300Z,6.19
2023-03-06T14:40:32.214Z,6.13
2023-03-06T14:43:34.757Z,6.09
2023-03-06T14:46:37.716Z,6.07
2023-03-06T14:49:40.188Z,6.11
2023-03-06T14:52:43.232Z,6.09
2023-03-06T14:55:53.995Z,5.97
2023-03-06T14:58:59.372Z,6.03
2023-03-06T15:02:05.226Z,6.00
2023-03-06T15:05:19.902Z,6.08
2023-03-06T15:08:28.942Z,6.00
2023-03-06T15:11:51.031Z,6.11
2023-03-06T15:15:03.717Z,6.08
2023-03-06T15:18:28.635Z,6.22
2023-03-06T15:21:38.873Z,6.06
2023-03-06T15:24:41.353Z,5.94
2023-03-06T15:27:53.632Z,5.77
2023-03-06T15:31:02.300Z,5.89
2023-03-06T15:34:07.826Z,5.84
2023-03-06T15:37:27.671Z,5.87
2023-03-06T15:40:31.908Z,5.90
2023-03-06T15:43:39.408Z,5.83
2023-03-06T15:46:42.305Z,5.79
2023-03-06T15:49:44.839Z,5.61
2023-03-06T15:52:48.092Z,5.61
2023-03-06T15:55:52.042Z,5.60
2023-03-06T15:58:56.281Z,5.67
2023-03-06T16:02:20.249Z,5.56
2023-03-06T16:05:23.605Z,5.41
2023-03-06T16:08:26.431Z,5.35
2023-03-06T16:11:43.336Z,5.27
2023-03-06T16:14:47.914Z,5.25
2023-03-06T16:17:50.342Z,5.32
2023-03-06T16:20:52.946Z,5.34
2023-03-06T16:23:55.711Z,5.28
2023-03-06T16:27:01.270Z,5.30
2023-03-06T16:30:04.954Z,5.21
2023-03-06T16:33:10.557Z,5.32
2023-03-06T16:36:16.562Z,5.34
2023-03-06T16:39:24.040Z,5.25
2023-03-06T16:42:26.565Z,5.26
2023-03-06T16:45:29.374Z,5.25
2023-03-06T16:48:32.851Z,5.20
2023-03-06T16:51:37.645Z,5.19
2023-03-06T16:54:40.049Z,5.10
2023-03-06T16:57:42.538Z,5.05
2023-03-06T17:00:45.930Z,5.05
2023-03-06T17:03:48.519Z,5.06
2023-03-06T17:06:52.873Z,5.04
2023-03-06T17:09:55.620Z,4.97
2023-03-06T17:12:58.173Z,4.93
2023-03-06T17:16:02.090Z,4.85
2023-03-06T17:19:05.006Z,4.81
2023-03-06T17:22:07.654Z,4.76
2023-03-06T17:25:10.678Z,4.68
2023-03-06T17:28:13.477Z,4.77
2023-03-06T17:31:22.252Z,4.61
2023-03-06T17:34:25.211Z,4.69
2023-03-06T17:37:27.956Z,4.70
2023-03-06T17:40:30.716Z,4.57
2023-03-06T17:43:34.150Z,4.61
2023-03-06T17:46:36.882Z,4.59
2023-03-06T17:49:40.298Z,4.59
2023-03-06T17:52:44.041Z,4.69
2023-03-06T17:55:46.604Z,4.58
2023-03-06T17:58:49.156Z,4.58
2023-03-06T18:01:51.943Z,4.63
2023-03-06T18:04:56.416Z,4.66
2023-03-06T18:07:59.059Z,4.48
2023-03-06T18:11:06.240Z,4.57
2023-03-06T18:14:09.600Z,4.60
2023-03-06T18:17:12.099Z,4.46
2023-03-06T18:20:14.862Z,4.50
2023-03-06T18:23:18.021Z,4.50
2023-03-06T18:26:23.560Z,4.52
2023-03-06T18:29:26.294Z,4.59
2023-03-06T18:32:29.265Z,4.70
2023-03-06T18:35:33.456Z,4.70
2023-03-06T18:38:37.860Z,4.69
2023-03-06T18:41:41.469Z,4.47
2023-03-06T18:44:48.184Z,4.56
2023-03-06T18:47:50.851Z,4.62
2023-03-06T18:50:53.828Z,4.46
2023-03-06T18:53:58.193Z,4.53
2023-03-06T18:57:01.091Z,4.55
2023-03-06T19:00:06.532Z,4.52
2023-03-06T19:03:11.074Z,4.60
2023-03-06T19:06:16.949Z,4.41
2023-03-06T19:09:19.618Z,4.27
2023-03-06T19:12:22.372Z,4.31
2023-03-06T19:15:25.136Z,4.15
2023-03-06T19:18:29.226Z,4.17
2023-03-06T19:21:31.990Z,4.17
2023-03-06T19:24:35.422Z,4.00
2023-03-06T19:27:39.194Z,3.86
2023-03-06T19:30:41.889Z,3.75
2023-03-06T19:33:45.052Z,3.79
2023-03-06T19:36:50.165Z,3.90
2023-03-06T19:39:52.592Z,3.95
2023-03-06T19:42:55.703Z,4.01
2023-03-06T19:45:58.505Z,3.82
2023-03-06T19:49:09.658Z,3.82
2023-03-06T19:52:12.699Z,3.86
2023-03-06T19:55:15.733Z,3.81
2023-03-06T19:58:18.401Z,3.83
2023-03-06T20:01:23.132Z,3.74
2023-03-06T20:04:26.306Z,3.63
2023-03-06T20:07:29.057Z,3.55
2023-03-06T20:10:31.473Z,3.42
2023-03-06T20:13:34.160Z,3.54
2023-03-06T20:16:37.353Z,3.60
2023-03-06T20:19:40.230Z,3.49
2023-03-06T20:22:43.336Z,3.36
2023-03-06T20:25:46.550Z,3.49
2023-03-06T20:28:49.978Z,3.57
2023-03-06T20:31:54.930Z,3.50
2023-03-06T20:34:57.879Z,3.51
2023-03-06T20:38:00.765Z,3.54
2023-03-06T20:41:03.618Z,3.50
2023-03-06T20:44:08.467Z,3.43
2023-03-06T20:47:11.243Z,3.56
2023-03-06T20:50:15.285Z,3.60
2023-03-06T20:53:18.055Z,3.54
2023-03-06T20:56:25.494Z,3.39
2023-03-06T20:59:28.329Z,3.17
2023-03-06T21:02:31.663Z,3.10
2023-03-06T21:05:34.712Z,3.03
2023-03-06T21:08:37.863Z,2.91
2023-03-06T21:11:41.068Z,2.73
2023-03-06T21:14:44.318Z,2.70
2023-03-06T21:17:46.715Z,2.66
2023-03-06T21:20:49.480Z,2.48
2023-03-06T21:23:53.140Z,2.43
2023-03-06T21:26:55.794Z,2.59
2023-03-06T21:29:58.408Z,2.63
2023-03-06T21:33:00.930Z,2.77
2023-03-06T21:36:03.942Z,2.85
2023-03-06T21:39:06.514Z,2.84
2023-03-06T21:42:08.944Z,2.90
2023-03-06T21:45:12.089Z,2.94
2023-03-06T21:48:15.828Z,3.01
2023-03-06T21:51:20.915Z,3.10
2023-03-06T21:54:23.503Z,3.03
2023-03-06T21:57:25.991Z,3.01
2023-03-06T22:00:28.669Z,2.93
2023-03-06T22:03:31.107Z,2.85
2023-03-06T22:06:33.675Z,2.59
2023-03-06T22:09:37.316Z,2.57
2023-03-06T22:12:40.239Z,2.51
2023-03-06T22:15:53.166Z,2.57
2023-03-06T22:18:56.940Z,2.60
2023-03-06T22:21:59.744Z,2.54
2023-03-06T22:25:02.489Z,2.58
2023-03-06T22:28:05.430Z,2.63
2023-03-06T22:31:19.449Z,2.64
2023-03-06T22:34:21.930Z,2.56
2023-03-06T22:37:24.378Z,2.61
2023-03-06T22:40:26.904Z,2.64
2023-03-06T22:43:30.077Z,2.64
2023-03-06T22:46:33.005Z,2.56
2023-03-06T22:49:35.460Z,2.53
2023-03-06T22:52:38.096Z,2.60
2023-03-06T22:55:40.650Z,2.53
2023-03-06T22:58:44.845Z,2.42
2023-03-06T23:01:47.388Z,2.41
2023-03-06T23:04:53.459Z,2.62
2023-03-06T23:07:56.225Z,2.42
2023-03-06T23:10:58.650Z,2.56
2023-03-06T23:14:20.085Z,2.64
2023-03-06T23:17:41.608Z,2.55
2023-03-06T23:21:11.437Z,2.46
2023-03-06T23:24:36.780Z,2.04
2023-03-06T23:27:39.320Z,2.07
2023-03-06T23:30:42.235Z,2.03
2023-03-06T23:33:45.453Z,1.97
2023-03-06T23:36:48.540Z,1.79
2023-03-06T23:39:51.056Z,1.92
2023-03-06T23:42:53.660Z,1.94
2023-03-06T23:45:56.492Z,1.89
2023-03-06T23:48:59.110Z,1.84
2023-03-06T23:52:01.623Z,1.72
2023-03-06T23:55:05.596Z,1.77
2023-03-06T23:58:08.298Z,1.70
